Terminal Aerodrome Forecast
Issued by NWS Wilmington, NC

Home | Current Version | Previous Version | Text Only | Print | Product List | Glossary On
Versions: 1 2 3 4 5 6 7 8 9 10 11 12 13 14 15 16 17 18 19 20 21
000
FTUS42 KILM 031301 AAA
TAFFLO
TAF AMD
KFLO 031301Z 0313/0412 26005KT 2SM SHRA BKN004
     FM031500 VRB04KT 6SM -SHRA BKN014
     FM031900 22004KT P6SM VCSH BKN020
     FM032200 VRB04KT 4SM SHRA BKN024=

USA.gov is the U.S. government's official web portal to all federal, state and local government web resources and services.